sensor_id;sensor_type;location;lat;lon;timestamp;P1;durP1;ratioP1;P2;durP2;ratioP2
58768;SDS011;44536;47.474;19.056;2024-02-14T00:01:48;9.18;;;1.15;;
58768;SDS011;44536;47.474;19.056;2024-02-14T00:04:50;3.50;;;1.55;;
58768;SDS011;44536;47.474;19.056;2024-02-14T00:07:52;3.83;;;1.62;;
58768;SDS011;44536;47.474;19.056;2024-02-14T00:10:55;3.28;;;1.48;;
58768;SDS011;44536;47.474;19.056;2024-02-14T00:13:57;3.10;;;1.85;;
58768;SDS011;44536;47.474;19.056;2024-02-14T00:16:59;3.17;;;1.48;;
58768;SDS011;44536;47.474;19.056;2024-02-14T00:20:01;2.97;;;1.50;;
58768;SDS011;44536;47.474;19.056;2024-02-14T00:23:05;5.40;;;2.25;;
58768;SDS011;44536;47.474;19.056;2024-02-14T00:26:07;3.60;;;1.23;;
58768;SDS011;44536;47.474;19.056;2024-02-14T00:29:09;3.20;;;1.70;;
58768;SDS011;44536;47.474;19.056;2024-02-14T00:32:14;2.28;;;1.05;;
58768;SDS011;44536;47.474;19.056;2024-02-14T00:35:16;3.15;;;1.70;;
58768;SDS011;44536;47.474;19.056;2024-02-14T00:38:18;1.80;;;1.08;;
58768;SDS011;44536;47.474;19.056;2024-02-14T00:41:20;3.72;;;1.58;;
58768;SDS011;44536;47.474;19.056;2024-02-14T00:44:22;3.53;;;1.80;;
58768;SDS011;44536;47.474;19.056;2024-02-14T00:47:24;3.37;;;1.67;;
58768;SDS011;44536;47.474;19.056;2024-02-14T00:50:26;4.20;;;1.75;;
58768;SDS011;44536;47.474;19.056;2024-02-14T00:53:29;2.67;;;1.50;;
58768;SDS011;44536;47.474;19.056;2024-02-14T00:56:31;5.22;;;1.55;;
58768;SDS011;44536;47.474;19.056;2024-02-14T00:59:33;5.45;;;2.00;;
58768;SDS011;44536;47.474;19.056;2024-02-14T01:02:35;2.45;;;1.62;;
58768;SDS011;44536;47.474;19.056;2024-02-14T01:05:38;1.48;;;0.80;;
58768;SDS011;44536;47.474;19.056;2024-02-14T01:08:40;3.70;;;1.73;;
58768;SDS011;44536;47.474;19.056;2024-02-14T01:11:43;5.78;;;2.15;;
58768;SDS011;44536;47.474;19.056;2024-02-14T01:14:45;1.08;;;0.57;;
58768;SDS011;44536;47.474;19.056;2024-02-14T01:17:47;3.62;;;2.35;;
58768;SDS011;44536;47.474;19.056;2024-02-14T01:20:50;3.35;;;1.50;;
58768;SDS011;44536;47.474;19.056;2024-02-14T01:23:52;4.03;;;2.37;;
58768;SDS011;44536;47.474;19.056;2024-02-14T01:26:54;2.45;;;1.10;;
58768;SDS011;44536;47.474;19.056;2024-02-14T01:29:57;3.30;;;1.50;;
58768;SDS011;44536;47.474;19.056;2024-02-14T01:33:00;3.65;;;1.58;;
58768;SDS011;44536;47.474;19.056;2024-02-14T01:36:02;2.72;;;0.95;;
58768;SDS011;44536;47.474;19.056;2024-02-14T01:39:04;4.25;;;2.42;;
58768;SDS011;44536;47.474;19.056;2024-02-14T01:42:12;5.20;;;1.83;;
58768;SDS011;44536;47.474;19.056;2024-02-14T01:45:14;3.72;;;1.35;;
58768;SDS011;44536;47.474;19.056;2024-02-14T01:48:17;2.87;;;1.42;;
58768;SDS011;44536;47.474;19.056;2024-02-14T01:54:22;4.55;;;1.60;;
58768;SDS011;44536;47.474;19.056;2024-02-14T01:57:26;5.60;;;3.00;;
58768;SDS011;44536;47.474;19.056;2024-02-14T02:00:29;1.67;;;1.12;;
58768;SDS011;44536;47.474;19.056;2024-02-14T02:03:33;4.28;;;1.62;;
58768;SDS011;44536;47.474;19.056;2024-02-14T02:06:38;3.50;;;2.30;;
58768;SDS011;44536;47.474;19.056;2024-02-14T02:09:42;1.55;;;0.95;;
58768;SDS011;44536;47.474;19.056;2024-02-14T02:12:44;3.65;;;1.80;;
58768;SDS011;44536;47.474;19.056;2024-02-14T02:15:47;2.10;;;1.60;;
58768;SDS011;44536;47.474;19.056;2024-02-14T02:18:48;0.90;;;0.60;;
58768;SDS011;44536;47.474;19.056;2024-02-14T02:21:52;2.42;;;1.25;;
58768;SDS011;44536;47.474;19.056;2024-02-14T02:24:54;3.22;;;1.37;;
58768;SDS011;44536;47.474;19.056;2024-02-14T02:27:56;2.75;;;1.75;;
58768;SDS011;44536;47.474;19.056;2024-02-14T02:30:58;2.60;;;2.08;;
58768;SDS011;44536;47.474;19.056;2024-02-14T02:34:00;6.85;;;2.25;;
58768;SDS011;44536;47.474;19.056;2024-02-14T02:37:02;2.22;;;0.80;;
58768;SDS011;44536;47.474;19.056;2024-02-14T02:40:08;1.35;;;0.68;;
58768;SDS011;44536;47.474;19.056;2024-02-14T02:43:12;3.17;;;1.80;;
58768;SDS011;44536;47.474;19.056;2024-02-14T02:46:14;3.80;;;1.62;;
58768;SDS011;44536;47.474;19.056;2024-02-14T02:49:16;4.90;;;2.10;;
58768;SDS011;44536;47.474;19.056;2024-02-14T02:52:18;2.75;;;1.30;;
58768;SDS011;44536;47.474;19.056;2024-02-14T02:55:20;2.80;;;2.35;;
58768;SDS011;44536;47.474;19.056;2024-02-14T02:58:22;6.47;;;2.45;;
58768;SDS011;44536;47.474;19.056;2024-02-14T03:01:24;2.42;;;0.98;;
58768;SDS011;44536;47.474;19.056;2024-02-14T03:04:32;3.58;;;1.15;;
58768;SDS011;44536;47.474;19.056;2024-02-14T03:07:52;1.52;;;0.88;;
58768;SDS011;44536;47.474;19.056;2024-02-14T03:10:55;3.40;;;2.22;;
58768;SDS011;44536;47.474;19.056;2024-02-14T03:13:57;4.28;;;1.48;;
58768;SDS011;44536;47.474;19.056;2024-02-14T03:17:02;3.60;;;2.15;;
58768;SDS011;44536;47.474;19.056;2024-02-14T03:20:04;1.77;;;1.15;;
58768;SDS011;44536;47.474;19.056;2024-02-14T03:23:19;1.45;;;0.75;;
58768;SDS011;44536;47.474;19.056;2024-02-14T03:26:21;2.97;;;0.88;;
58768;SDS011;44536;47.474;19.056;2024-02-14T03:29:23;2.05;;;1.00;;
58768;SDS011;44536;47.474;19.056;2024-02-14T03:32:25;7.97;;;1.87;;
58768;SDS011;44536;47.474;19.056;2024-02-14T03:35:28;3.95;;;2.33;;
58768;SDS011;44536;47.474;19.056;2024-02-14T03:38:30;4.00;;;1.45;;
58768;SDS011;44536;47.474;19.056;2024-02-14T03:41:33;2.80;;;1.70;;
58768;SDS011;44536;47.474;19.056;2024-02-14T03:44:35;3.20;;;1.83;;
58768;SDS011;44536;47.474;19.056;2024-02-14T03:47:40;2.50;;;1.02;;
58768;SDS011;44536;47.474;19.056;2024-02-14T03:50:43;4.55;;;1.77;;
58768;SDS011;44536;47.474;19.056;2024-02-14T03:53:45;2.08;;;1.37;;
58768;SDS011;44536;47.474;19.056;2024-02-14T03:56:47;1.95;;;1.23;;
58768;SDS011;44536;47.474;19.056;2024-02-14T03:59:50;3.78;;;1.73;;
58768;SDS011;44536;47.474;19.056;2024-02-14T04:02:52;1.80;;;1.52;;
58768;SDS011;44536;47.474;19.056;2024-02-14T04:06:01;1.50;;;1.02;;
58768;SDS011;44536;47.474;19.056;2024-02-14T04:09:03;4.15;;;2.30;;
58768;SDS011;44536;47.474;19.056;2024-02-14T04:12:07;3.70;;;2.28;;
58768;SDS011;44536;47.474;19.056;2024-02-14T04:15:11;4.47;;;1.95;;
58768;SDS011;44536;47.474;19.056;2024-02-14T04:18:14;4.70;;;2.92;;
58768;SDS011;44536;47.474;19.056;2024-02-14T04:21:17;6.18;;;2.97;;
58768;SDS011;44536;47.474;19.056;2024-02-14T04:24:20;4.03;;;2.55;;
58768;SDS011;44536;47.474;19.056;2024-02-14T04:27:22;5.95;;;3.08;;
58768;SDS011;44536;47.474;19.056;2024-02-14T04:30:24;3.55;;;2.25;;
58768;SDS011;44536;47.474;19.056;2024-02-14T04:33:26;4.78;;;3.22;;
58768;SDS011;44536;47.474;19.056;2024-02-14T04:36:29;5.97;;;3.05;;
58768;SDS011;44536;47.474;19.056;2024-02-14T04:39:31;2.85;;;1.52;;
58768;SDS011;44536;47.474;19.056;2024-02-14T04:42:33;3.33;;;1.90;;
58768;SDS011;44536;47.474;19.056;2024-02-14T04:45:35;3.83;;;2.05;;
58768;SDS011;44536;47.474;19.056;2024-02-14T04:48:38;5.93;;;2.60;;
58768;SDS011;44536;47.474;19.056;2024-02-14T04:51:41;2.20;;;1.45;;
58768;SDS011;44536;47.474;19.056;2024-02-14T04:54:44;3.73;;;2.53;;
58768;SDS011;44536;47.474;19.056;2024-02-14T04:57:45;3.25;;;2.40;;
58768;SDS011;44536;47.474;19.056;2024-02-14T05:00:48;4.57;;;2.50;;
58768;SDS011;44536;47.474;19.056;2024-02-14T05:03:49;2.87;;;1.25;;
58768;SDS011;44536;47.474;19.056;2024-02-14T05:06:52;5.45;;;2.62;;
58768;SDS011;44536;47.474;19.056;2024-02-14T05:09:59;6.05;;;3.58;;
58768;SDS011;44536;47.474;19.056;2024-02-14T05:13:01;4.82;;;2.90;;
58768;SDS011;44536;47.474;19.056;2024-02-14T05:16:04;5.43;;;2.65;;
58768;SDS011;44536;47.474;19.056;2024-02-14T05:19:06;5.03;;;2.80;;
58768;SDS011;44536;47.474;19.056;2024-02-14T05:22:08;8.02;;;2.95;;
58768;SDS011;44536;47.474;19.056;2024-02-14T05:25:10;3.50;;;2.90;;
58768;SDS011;44536;47.474;19.056;2024-02-14T05:28:12;5.93;;;3.87;;
58768;SDS011;44536;47.474;19.056;2024-02-14T05:31:16;8.38;;;4.55;;
58768;SDS011;44536;47.474;19.056;2024-02-14T05:34:19;4.50;;;2.87;;
58768;SDS011;44536;47.474;19.056;2024-02-14T05:37:21;4.65;;;2.75;;
58768;SDS011;44536;47.474;19.056;2024-02-14T05:40:24;4.57;;;3.70;;
58768;SDS011;44536;47.474;19.056;2024-02-14T05:43:28;6.82;;;2.12;;
58768;SDS011;44536;47.474;19.056;2024-02-14T05:46:30;5.05;;;2.37;;
58768;SDS011;44536;47.474;19.056;2024-02-14T05:49:32;6.07;;;3.85;;
58768;SDS011;44536;47.474;19.056;2024-02-14T05:52:35;4.35;;;2.70;;
58768;SDS011;44536;47.474;19.056;2024-02-14T05:55:38;18.92;;;4.95;;
58768;SDS011;44536;47.474;19.056;2024-02-14T05:58:40;2.65;;;2.00;;
58768;SDS011;44536;47.474;19.056;2024-02-14T06:01:42;6.87;;;4.53;;
58768;SDS011;44536;47.474;19.056;2024-02-14T06:04:45;8.45;;;3.62;;
58768;SDS011;44536;47.474;19.056;2024-02-14T06:07:47;3.80;;;2.67;;
58768;SDS011;44536;47.474;19.056;2024-02-14T06:10:50;5.03;;;2.85;;
58768;SDS011;44536;47.474;19.056;2024-02-14T06:13:52;6.00;;;3.45;;
58768;SDS011;44536;47.474;19.056;2024-02-14T06:16:56;6.50;;;4.12;;
58768;SDS011;44536;47.474;19.056;2024-02-14T06:19:59;6.03;;;2.75;;
58768;SDS011;44536;47.474;19.056;2024-02-14T06:23:02;11.07;;;4.70;;
58768;SDS011;44536;47.474;19.056;2024-02-14T06:26:07;7.72;;;3.15;;
58768;SDS011;44536;47.474;19.056;2024-02-14T06:29:09;6.30;;;2.27;;
58768;SDS011;44536;47.474;19.056;2024-02-14T06:32:12;7.72;;;3.35;;
58768;SDS011;44536;47.474;19.056;2024-02-14T06:35:14;6.57;;;2.83;;
58768;SDS011;44536;47.474;19.056;2024-02-14T06:38:22;5.45;;;3.83;;
58768;SDS011;44536;47.474;19.056;2024-02-14T06:41:24;7.25;;;5.22;;
58768;SDS011;44536;47.474;19.056;2024-02-14T06:47:29;3.80;;;2.83;;
58768;SDS011;44536;47.474;19.056;2024-02-14T06:50:32;5.87;;;3.53;;
58768;SDS011;44536;47.474;19.056;2024-02-14T06:53:34;5.72;;;3.83;;
58768;SDS011;44536;47.474;19.056;2024-02-14T06:56:37;14.90;;;4.60;;
58768;SDS011;44536;47.474;19.056;2024-02-14T06:59:40;6.90;;;2.97;;
58768;SDS011;44536;47.474;19.056;2024-02-14T07:02:42;9.02;;;4.47;;
58768;SDS011;44536;47.474;19.056;2024-02-14T07:05:45;6.07;;;3.33;;
58768;SDS011;44536;47.474;19.056;2024-02-14T07:08:47;7.78;;;3.83;;
58768;SDS011;44536;47.474;19.056;2024-02-14T07:11:51;7.85;;;4.97;;
58768;SDS011;44536;47.474;19.056;2024-02-14T07:14:55;5.12;;;3.25;;
58768;SDS011;44536;47.474;19.056;2024-02-14T07:17:57;9.02;;;3.10;;
58768;SDS011;44536;47.474;19.056;2024-02-14T07:21:01;8.90;;;4.43;;
58768;SDS011;44536;47.474;19.056;2024-02-14T07:24:08;6.28;;;4.28;;
58768;SDS011;44536;47.474;19.056;2024-02-14T07:27:10;5.60;;;3.37;;
58768;SDS011;44536;47.474;19.056;2024-02-14T07:30:13;5.28;;;3.40;;
58768;SDS011;44536;47.474;19.056;2024-02-14T07:33:16;4.28;;;2.87;;
58768;SDS011;44536;47.474;19.056;2024-02-14T07:36:18;4.18;;;3.72;;
58768;SDS011;44536;47.474;19.056;2024-02-14T07:39:20;2.37;;;1.45;;
58768;SDS011;44536;47.474;19.056;2024-02-14T07:42:23;8.38;;;5.32;;
58768;SDS011;44536;47.474;19.056;2024-02-14T07:45:25;8.60;;;4.03;;
58768;SDS011;44536;47.474;19.056;2024-02-14T07:48:27;9.15;;;4.60;;
58768;SDS011;44536;47.474;19.056;2024-02-14T07:51:30;8.02;;;3.12;;
58768;SDS011;44536;47.474;19.056;2024-02-14T07:54:32;6.68;;;4.57;;
58768;SDS011;44536;47.474;19.056;2024-02-14T07:57:35;6.03;;;2.45;;
58768;SDS011;44536;47.474;19.056;2024-02-14T08:00:38;8.27;;;3.28;;
58768;SDS011;44536;47.474;19.056;2024-02-14T08:06:44;6.80;;;4.32;;
58768;SDS011;44536;47.474;19.056;2024-02-14T08:09:47;5.10;;;2.28;;
58768;SDS011;44536;47.474;19.056;2024-02-14T08:12:48;4.85;;;2.30;;
58768;SDS011;44536;47.474;19.056;2024-02-14T08:15:51;7.28;;;2.70;;
58768;SDS011;44536;47.474;19.056;2024-02-14T08:18:53;6.75;;;4.00;;
58768;SDS011;44536;47.474;19.056;2024-02-14T08:22:01;8.13;;;4.35;;
58768;SDS011;44536;47.474;19.056;2024-02-14T08:25:03;6.28;;;4.50;;
58768;SDS011;44536;47.474;19.056;2024-02-14T08:28:05;10.03;;;4.87;;
58768;SDS011;44536;47.474;19.056;2024-02-14T08:31:09;7.15;;;2.85;;
58768;SDS011;44536;47.474;19.056;2024-02-14T08:34:12;7.25;;;2.92;;
58768;SDS011;44536;47.474;19.056;2024-02-14T08:37:14;8.95;;;4.50;;
58768;SDS011;44536;47.474;19.056;2024-02-14T08:40:16;6.78;;;4.10;;
58768;SDS011;44536;47.474;19.056;2024-02-14T08:43:18;10.95;;;4.10;;
58768;SDS011;44536;47.474;19.056;2024-02-14T08:46:20;5.70;;;3.03;;
58768;SDS011;44536;47.474;19.056;2024-02-14T08:49:22;9.70;;;4.35;;
58768;SDS011;44536;47.474;19.056;2024-02-14T08:52:25;5.43;;;2.97;;
58768;SDS011;44536;47.474;19.056;2024-02-14T08:55:27;7.85;;;5.18;;
58768;SDS011;44536;47.474;19.056;2024-02-14T08:58:29;10.23;;;3.40;;
58768;SDS011;44536;47.474;19.056;2024-02-14T09:01:32;7.55;;;4.07;;
58768;SDS011;44536;47.474;19.056;2024-02-14T09:04:34;5.65;;;2.75;;
58768;SDS011;44536;47.474;19.056;2024-02-14T09:07:36;7.80;;;3.62;;
58768;SDS011;44536;47.474;19.056;2024-02-14T09:10:38;5.97;;;3.72;;
58768;SDS011;44536;47.474;19.056;2024-02-14T09:16:44;4.37;;;2.30;;
58768;SDS011;44536;47.474;19.056;2024-02-14T09:19:49;6.00;;;2.47;;
58768;SDS011;44536;47.474;19.056;2024-02-14T09:22:54;3.28;;;1.50;;
58768;SDS011;44536;47.474;19.056;2024-02-14T09:25:57;5.55;;;2.53;;
58768;SDS011;44536;47.474;19.056;2024-02-14T09:28:59;5.68;;;2.50;;
58768;SDS011;44536;47.474;19.056;2024-02-14T09:32:01;9.40;;;2.85;;
58768;SDS011;44536;47.474;19.056;2024-02-14T09:35:03;4.32;;;2.67;;
58768;SDS011;44536;47.474;19.056;2024-02-14T09:38:08;4.05;;;1.55;;
58768;SDS011;44536;47.474;19.056;2024-02-14T09:41:12;4.55;;;2.28;;
58768;SDS011;44536;47.474;19.056;2024-02-14T09:44:17;5.10;;;1.95;;
58768;SDS011;44536;47.474;19.056;2024-02-14T09:47:19;6.12;;;2.55;;
58768;SDS011;44536;47.474;19.056;2024-02-14T09:50:21;7.78;;;2.50;;
58768;SDS011;44536;47.474;19.056;2024-02-14T09:53:26;6.32;;;3.08;;
58768;SDS011;44536;47.474;19.056;2024-02-14T09:56:30;14.75;;;4.90;;
58768;SDS011;44536;47.474;19.056;2024-02-14T09:59:35;6.87;;;3.17;;
58768;SDS011;44536;47.474;19.056;2024-02-14T10:02:38;6.10;;;3.30;;
58768;SDS011;44536;47.474;19.056;2024-02-14T10:05:40;7.07;;;3.45;;
58768;SDS011;44536;47.474;19.056;2024-02-14T10:08:42;5.60;;;2.97;;
58768;SDS011;44536;47.474;19.056;2024-02-14T10:12:00;10.85;;;5.53;;
58768;SDS011;44536;47.474;19.056;2024-02-14T10:15:02;8.45;;;4.78;;
58768;SDS011;44536;47.474;19.056;2024-02-14T10:18:04;7.93;;;3.80;;
58768;SDS011;44536;47.474;19.056;2024-02-14T10:21:08;7.62;;;3.22;;
58768;SDS011;44536;47.474;19.056;2024-02-14T10:24:16;8.63;;;3.42;;
58768;SDS011;44536;47.474;19.056;2024-02-14T10:27:20;6.62;;;2.83;;
58768;SDS011;44536;47.474;19.056;2024-02-14T10:30:23;8.25;;;5.35;;
58768;SDS011;44536;47.474;19.056;2024-02-14T10:33:27;5.78;;;2.20;;
58768;SDS011;44536;47.474;19.056;2024-02-14T10:36:30;4.68;;;1.80;;
58768;SDS011;44536;47.474;19.056;2024-02-14T10:42:47;4.70;;;1.87;;
58768;SDS011;44536;47.474;19.056;2024-02-14T10:45:49;6.50;;;2.50;;
58768;SDS011;44536;47.474;19.056;2024-02-14T10:48:53;5.93;;;2.30;;
58768;SDS011;44536;47.474;19.056;2024-02-14T10:54:58;5.32;;;2.03;;
58768;SDS011;44536;47.474;19.056;2024-02-14T10:58:01;5.25;;;2.80;;
58768;SDS011;44536;47.474;19.056;2024-02-14T11:04:06;5.03;;;2.62;;
58768;SDS011;44536;47.474;19.056;2024-02-14T11:07:09;7.15;;;2.72;;
58768;SDS011;44536;47.474;19.056;2024-02-14T11:10:15;7.07;;;3.80;;
58768;SDS011;44536;47.474;19.056;2024-02-14T11:13:18;6.47;;;2.45;;
58768;SDS011;44536;47.474;19.056;2024-02-14T11:16:26;5.18;;;3.00;;
58768;SDS011;44536;47.474;19.056;2024-02-14T11:19:31;6.55;;;2.83;;
58768;SDS011;44536;47.474;19.056;2024-02-14T11:22:37;6.72;;;2.85;;
58768;SDS011;44536;47.474;19.056;2024-02-14T11:25:40;6.68;;;3.42;;
58768;SDS011;44536;47.474;19.056;2024-02-14T11:28:41;7.22;;;3.20;;
58768;SDS011;44536;47.474;19.056;2024-02-14T11:31:47;8.30;;;3.78;;
58768;SDS011;44536;47.474;19.056;2024-02-14T11:34:53;8.88;;;4.35;;
58768;SDS011;44536;47.474;19.056;2024-02-14T11:37:56;8.10;;;4.12;;
58768;SDS011;44536;47.474;19.056;2024-02-14T11:40:59;8.43;;;3.90;;
58768;SDS011;44536;47.474;19.056;2024-02-14T11:44:02;7.37;;;3.65;;
58768;SDS011;44536;47.474;19.056;2024-02-14T11:50:07;6.93;;;3.92;;
58768;SDS011;44536;47.474;19.056;2024-02-14T11:53:13;6.30;;;3.37;;
58768;SDS011;44536;47.474;19.056;2024-02-14T11:56:16;5.93;;;2.67;;
58768;SDS011;44536;47.474;19.056;2024-02-14T11:59:18;5.97;;;2.72;;
58768;SDS011;44536;47.474;19.056;2024-02-14T12:02:22;5.72;;;2.75;;
58768;SDS011;44536;47.474;19.056;2024-02-14T12:05:24;5.85;;;2.70;;
58768;SDS011;44536;47.474;19.056;2024-02-14T12:08:27;5.50;;;2.47;;
58768;SDS011;44536;47.474;19.056;2024-02-14T12:11:29;4.68;;;3.03;;
58768;SDS011;44536;47.474;19.056;2024-02-14T12:14:35;4.05;;;1.70;;
58768;SDS011;44536;47.474;19.056;2024-02-14T12:17:38;4.90;;;2.12;;
58768;SDS011;44536;47.474;19.056;2024-02-14T12:23:44;5.95;;;2.30;;
58768;SDS011;44536;47.474;19.056;2024-02-14T12:26:46;3.62;;;1.75;;
58768;SDS011;44536;47.474;19.056;2024-02-14T12:29:51;5.78;;;2.03;;
58768;SDS011;44536;47.474;19.056;2024-02-14T12:32:59;4.10;;;1.73;;
58768;SDS011;44536;47.474;19.056;2024-02-14T12:36:03;7.00;;;2.85;;
58768;SDS011;44536;47.474;19.056;2024-02-14T12:39:06;9.10;;;2.47;;
58768;SDS011;44536;47.474;19.056;2024-02-14T12:42:08;4.62;;;1.75;;
58768;SDS011;44536;47.474;19.056;2024-02-14T12:45:12;3.33;;;1.65;;
58768;SDS011;44536;47.474;19.056;2024-02-14T12:48:22;3.83;;;1.73;;
58768;SDS011;44536;47.474;19.056;2024-02-14T12:51:24;7.72;;;1.80;;
58768;SDS011;44536;47.474;19.056;2024-02-14T12:54:31;4.97;;;1.73;;
58768;SDS011;44536;47.474;19.056;2024-02-14T12:57:33;2.80;;;1.15;;
58768;SDS011;44536;47.474;19.056;2024-02-14T13:00:35;5.40;;;1.70;;
58768;SDS011;44536;47.474;19.056;2024-02-14T13:03:37;4.75;;;1.73;;
58768;SDS011;44536;47.474;19.056;2024-02-14T13:06:40;4.60;;;1.45;;
58768;SDS011;44536;47.474;19.056;2024-02-14T13:09:42;2.17;;;1.08;;
58768;SDS011;44536;47.474;19.056;2024-02-14T13:12:46;2.37;;;1.02;;
58768;SDS011;44536;47.474;19.056;2024-02-14T13:15:48;2.47;;;1.02;;
58768;SDS011;44536;47.474;19.056;2024-02-14T13:18:50;9.38;;;1.75;;
58768;SDS011;44536;47.474;19.056;2024-02-14T13:21:52;6.47;;;2.28;;
58768;SDS011;44536;47.474;19.056;2024-02-14T13:24:55;2.80;;;1.67;;
58768;SDS011;44536;47.474;19.056;2024-02-14T13:27:58;4.50;;;2.17;;
58768;SDS011;44536;47.474;19.056;2024-02-14T13:31:00;3.65;;;2.00;;
58768;SDS011;44536;47.474;19.056;2024-02-14T13:34:03;5.70;;;1.87;;
58768;SDS011;44536;47.474;19.056;2024-02-14T13:37:06;4.60;;;2.08;;
58768;SDS011;44536;47.474;19.056;2024-02-14T13:40:08;5.10;;;2.15;;
58768;SDS011;44536;47.474;19.056;2024-02-14T13:43:13;3.87;;;2.25;;
58768;SDS011;44536;47.474;19.056;2024-02-14T13:46:19;4.80;;;2.20;;
58768;SDS011;44536;47.474;19.056;2024-02-14T13:49:21;8.13;;;2.72;;
58768;SDS011;44536;47.474;19.056;2024-02-14T13:52:24;6.62;;;1.70;;
58768;SDS011;44536;47.474;19.056;2024-02-14T13:55:26;5.93;;;2.08;;
58768;SDS011;44536;47.474;19.056;2024-02-14T13:58:28;3.75;;;1.35;;
58768;SDS011;44536;47.474;19.056;2024-02-14T14:01:31;3.80;;;1.93;;
58768;SDS011;44536;47.474;19.056;2024-02-14T14:04:33;6.53;;;1.90;;
58768;SDS011;44536;47.474;19.056;2024-02-14T14:07:39;7.18;;;2.00;;
58768;SDS011;44536;47.474;19.056;2024-02-14T14:10:59;8.77;;;2.75;;
58768;SDS011;44536;47.474;19.056;2024-02-14T14:14:01;4.87;;;3.08;;
58768;SDS011;44536;47.474;19.056;2024-02-14T14:17:03;7.37;;;2.72;;
58768;SDS011;44536;47.474;19.056;2024-02-14T14:20:05;7.03;;;2.85;;
58768;SDS011;44536;47.474;19.056;2024-02-14T14:23:10;8.43;;;2.12;;
58768;SDS011;44536;47.474;19.056;2024-02-14T14:26:12;8.00;;;2.75;;
58768;SDS011;44536;47.474;19.056;2024-02-14T14:29:15;7.03;;;3.95;;
58768;SDS011;44536;47.474;19.056;2024-02-14T14:32:17;4.70;;;2.42;;
58768;SDS011;44536;47.474;19.056;2024-02-14T14:35:20;5.12;;;2.20;;
58768;SDS011;44536;47.474;19.056;2024-02-14T14:38:22;6.00;;;2.37;;
58768;SDS011;44536;47.474;19.056;2024-02-14T14:41:24;6.80;;;2.72;;
58768;SDS011;44536;47.474;19.056;2024-02-14T14:44:26;6.32;;;3.20;;
58768;SDS011;44536;47.474;19.056;2024-02-14T14:47:29;4.83;;;2.80;;
58768;SDS011;44536;47.474;19.056;2024-02-14T14:50:31;5.03;;;2.47;;
58768;SDS011;44536;47.474;19.056;2024-02-14T14:53:33;4.85;;;2.37;;
58768;SDS011;44536;47.474;19.056;2024-02-14T14:56:37;5.07;;;2.47;;
58768;SDS011;44536;47.474;19.056;2024-02-14T14:59:40;6.18;;;2.20;;
58768;SDS011;44536;47.474;19.056;2024-02-14T15:02:42;6.25;;;3.08;;
58768;SDS011;44536;47.474;19.056;2024-02-14T15:05:45;11.27;;;2.33;;
58768;SDS011;44536;47.474;19.056;2024-02-14T15:08:47;5.28;;;2.42;;
58768;SDS011;44536;47.474;19.056;2024-02-14T15:11:50;9.48;;;3.10;;
58768;SDS011;44536;47.474;19.056;2024-02-14T15:14:52;8.25;;;3.47;;
58768;SDS011;44536;47.474;19.056;2024-02-14T15:17:57;6.25;;;2.53;;
58768;SDS011;44536;47.474;19.056;2024-02-14T15:21:00;6.65;;;2.97;;
58768;SDS011;44536;47.474;19.056;2024-02-14T15:24:02;8.20;;;3.53;;
58768;SDS011;44536;47.474;19.056;2024-02-14T15:27:06;9.00;;;3.28;;
58768;SDS011;44536;47.474;19.056;2024-02-14T15:30:08;7.07;;;3.22;;
58768;SDS011;44536;47.474;19.056;2024-02-14T15:33:29;9.30;;;2.80;;
58768;SDS011;44536;47.474;19.056;2024-02-14T15:36:31;8.20;;;3.85;;
58768;SDS011;44536;47.474;19.056;2024-02-14T15:39:33;4.20;;;2.45;;
58768;SDS011;44536;47.474;19.056;2024-02-14T15:42:35;6.78;;;2.95;;
58768;SDS011;44536;47.474;19.056;2024-02-14T15:45:37;8.63;;;3.25;;
58768;SDS011;44536;47.474;19.056;2024-02-14T15:48:40;6.32;;;2.83;;
58768;SDS011;44536;47.474;19.056;2024-02-14T15:51:43;5.57;;;2.72;;
58768;SDS011;44536;47.474;19.056;2024-02-14T15:54:46;8.07;;;3.20;;
58768;SDS011;44536;47.474;19.056;2024-02-14T15:57:49;6.37;;;2.75;;
58768;SDS011;44536;47.474;19.056;2024-02-14T16:00:51;6.80;;;4.18;;
58768;SDS011;44536;47.474;19.056;2024-02-14T16:03:54;6.07;;;3.47;;
58768;SDS011;44536;47.474;19.056;2024-02-14T16:06:57;4.80;;;2.10;;
58768;SDS011;44536;47.474;19.056;2024-02-14T16:09:59;4.53;;;2.42;;
58768;SDS011;44536;47.474;19.056;2024-02-14T16:13:01;7.07;;;2.85;;
58768;SDS011;44536;47.474;19.056;2024-02-14T16:16:06;5.55;;;2.58;;
58768;SDS011;44536;47.474;19.056;2024-02-14T16:19:09;6.97;;;3.33;;
58768;SDS011;44536;47.474;19.056;2024-02-14T16:22:12;8.38;;;3.58;;
58768;SDS011;44536;47.474;19.056;2024-02-14T16:25:18;6.65;;;2.95;;
58768;SDS011;44536;47.474;19.056;2024-02-14T16:28:22;7.15;;;3.70;;
58768;SDS011;44536;47.474;19.056;2024-02-14T16:31:24;8.98;;;3.10;;
58768;SDS011;44536;47.474;19.056;2024-02-14T16:34:26;6.70;;;3.53;;
58768;SDS011;44536;47.474;19.056;2024-02-14T16:37:28;8.43;;;2.97;;
58768;SDS011;44536;47.474;19.056;2024-02-14T16:40:30;7.72;;;4.28;;
58768;SDS011;44536;47.474;19.056;2024-02-14T16:43:34;7.15;;;2.97;;
58768;SDS011;44536;47.474;19.056;2024-02-14T16:46:36;6.82;;;3.28;;
58768;SDS011;44536;47.474;19.056;2024-02-14T16:49:38;9.40;;;3.55;;
58768;SDS011;44536;47.474;19.056;2024-02-14T16:52:45;7.87;;;3.40;;
58768;SDS011;44536;47.474;19.056;2024-02-14T16:55:47;11.75;;;4.10;;
58768;SDS011;44536;47.474;19.056;2024-02-14T16:58:49;7.37;;;2.72;;
58768;SDS011;44536;47.474;19.056;2024-02-14T17:01:51;5.57;;;3.15;;
58768;SDS011;44536;47.474;19.056;2024-02-14T17:04:53;4.97;;;2.60;;
58768;SDS011;44536;47.474;19.056;2024-02-14T17:07:55;7.30;;;2.85;;
58768;SDS011;44536;47.474;19.056;2024-02-14T17:10:58;9.63;;;3.05;;
58768;SDS011;44536;47.474;19.056;2024-02-14T17:14:00;7.97;;;3.95;;
58768;SDS011;44536;47.474;19.056;2024-02-14T17:17:04;5.90;;;3.05;;
58768;SDS011;44536;47.474;19.056;2024-02-14T17:20:06;10.45;;;3.15;;
58768;SDS011;44536;47.474;19.056;2024-02-14T17:23:09;7.33;;;3.87;;
58768;SDS011;44536;47.474;19.056;2024-02-14T17:26:12;10.77;;;5.50;;
58768;SDS011;44536;47.474;19.056;2024-02-14T17:29:14;6.53;;;3.28;;
58768;SDS011;44536;47.474;19.056;2024-02-14T17:32:16;9.18;;;3.87;;
58768;SDS011;44536;47.474;19.056;2024-02-14T17:35:33;5.87;;;3.53;;
58768;SDS011;44536;47.474;19.056;2024-02-14T17:38:35;13.20;;;4.43;;
58768;SDS011;44536;47.474;19.056;2024-02-14T17:41:38;7.82;;;4.22;;
58768;SDS011;44536;47.474;19.056;2024-02-14T17:44:41;9.80;;;3.97;;
58768;SDS011;44536;47.474;19.056;2024-02-14T17:47:44;8.18;;;3.37;;
58768;SDS011;44536;47.474;19.056;2024-02-14T17:50:46;8.93;;;5.82;;
58768;SDS011;44536;47.474;19.056;2024-02-14T17:53:50;8.32;;;3.42;;
58768;SDS011;44536;47.474;19.056;2024-02-14T17:56:53;11.25;;;3.47;;
58768;SDS011;44536;47.474;19.056;2024-02-14T17:59:55;7.20;;;3.72;;
58768;SDS011;44536;47.474;19.056;2024-02-14T18:02:57;8.45;;;3.17;;
58768;SDS011;44536;47.474;19.056;2024-02-14T18:06:00;9.57;;;3.33;;
58768;SDS011;44536;47.474;19.056;2024-02-14T18:09:03;6.82;;;2.80;;
58768;SDS011;44536;47.474;19.056;2024-02-14T18:12:05;5.40;;;2.85;;
58768;SDS011;44536;47.474;19.056;2024-02-14T18:15:07;6.70;;;2.83;;
58768;SDS011;44536;47.474;19.056;2024-02-14T18:21:13;9.75;;;3.78;;
58768;SDS011;44536;47.474;19.056;2024-02-14T18:24:15;6.45;;;3.97;;
58768;SDS011;44536;47.474;19.056;2024-02-14T18:27:17;8.43;;;3.87;;
58768;SDS011;44536;47.474;19.056;2024-02-14T18:30:21;14.52;;;4.40;;
58768;SDS011;44536;47.474;19.056;2024-02-14T18:33:24;9.10;;;3.33;;
58768;SDS011;44536;47.474;19.056;2024-02-14T18:36:26;6.62;;;2.65;;